Time;durP1;ratioP1;P1;durP2;ratioP2;P2;SDS_P1;SDS_P2;PMS_P1;PMS_P2;Temp;Humidity;BMP_temperature;BMP_pressure;BME280_temperature;BME280_humidity;BME280_pressure;Samples;Min_cycle;Max_cycle;Signal;HPM_P1;HPM_P2
2022/06/29 00:00:17;;;;;;;4.72;2.85;;;16.20;99.90;;;;;;5050839;28;20389;-79
2022/06/29 00:02:44;;;;;;;4.75;2.35;;;16.20;99.90;;;;;;5065357;28;20068;-79
2022/06/29 00:05:12;;;;;;;4.63;2.85;;;16.20;99.90;;;;;;5049779;28;20045;-79
2022/06/29 00:07:38;;;;;;;11.25;3.03;;;16.20;99.90;;;;;;5066710;28;20054;-78
2022/06/29 00:10:04;;;;;;;10.07;3.42;;;16.20;99.90;;;;;;5064695;28;20067;-78
2022/06/29 00:12:31;;;;;;;6.45;2.30;;;16.10;99.90;;;;;;5067634;28;20127;-78
2022/06/29 00:14:57;;;;;;;5.10;2.47;;;16.10;99.90;;;;;;5046422;28;20036;-78
2022/06/29 00:17:23;;;;;;;5.68;2.85;;;16.10;99.90;;;;;;5067373;28;20077;-78
2022/06/29 00:19:50;;;;;;;7.50;3.63;;;16.10;99.90;;;;;;5055184;28;20044;-77
2022/06/29 00:22:15;;;;;;;4.78;2.53;;;16.10;99.90;;;;;;5065135;28;20119;-78
2022/06/29 00:24:41;;;;;;;8.45;3.17;;;16.00;99.90;;;;;;5061852;28;20123;-78
2022/06/29 00:27:08;;;;;;;6.65;2.20;;;16.00;99.90;;;;;;5056613;28;20094;-78
2022/06/29 00:29:34;;;;;;;7.55;2.47;;;15.90;99.90;;;;;;5065533;28;20048;-78
2022/06/29 00:32:00;;;;;;;5.20;3.05;;;16.00;99.90;;;;;;5063340;28;20308;-78
2022/06/29 00:34:26;;;;;;;12.82;3.38;;;15.90;99.90;;;;;;5066271;28;20039;-77
2022/06/29 00:36:52;;;;;;;5.07;3.22;;;15.90;99.90;;;;;;5052349;28;20041;-79
2022/06/29 00:39:18;;;;;;;4.10;2.45;;;15.80;99.90;;;;;;5064065;28;20043;-79
2022/06/29 00:41:45;;;;;;;7.78;2.80;;;15.80;99.90;;;;;;5054793;28;20154;-77
2022/06/29 00:44:18;;;;;;;6.00;2.40;;;15.80;99.90;;;;;;5065103;28;20098;-78
2022/06/29 00:46:57;;;;;;;6.10;2.97;;;15.80;99.90;;;;;;5064595;28;20036;-78
2022/06/29 00:49:26;;;;;;;5.40;2.92;;;15.70;99.90;;;;;;5060490;28;20044;-78
2022/06/29 00:52:09;;;;;;;6.07;2.65;;;15.80;99.90;;;;;;5047146;28;20135;-80
2022/06/29 00:54:38;;;;;;;6.82;3.40;;;15.80;99.90;;;;;;5059072;28;20408;-78
2022/06/29 00:57:18;;;;;;;5.67;2.43;;;15.80;99.90;;;;;;5061279;28;20098;-79
2022/06/29 00:59:47;;;;;;;3.67;1.98;;;15.70;99.90;;;;;;5066269;28;20108;-78
2022/06/29 01:02:15;;;;;;;4.90;2.70;;;15.70;99.90;;;;;;5065145;28;20368;-78
2022/06/29 01:04:41;;;;;;;4.35;2.78;;;15.70;99.90;;;;;;5047673;28;20135;-78
2022/06/29 01:07:07;;;;;;;6.10;3.30;;;15.60;99.90;;;;;;5062709;28;20033;-78
2022/06/29 01:09:34;;;;;;;9.15;3.50;;;15.60;99.90;;;;;;5055038;28;20043;-78
2022/06/29 01:12:00;;;;;;;6.18;3.28;;;15.60;99.90;;;;;;5062720;28;20037;-79
2022/06/29 01:14:26;;;;;;;7.10;2.47;;;15.60;99.90;;;;;;5065397;28;20051;-78
2022/06/29 01:16:51;;;;;;;5.18;2.75;;;15.50;99.90;;;;;;5058141;28;20040;-79
2022/06/29 01:19:17;;;;;;;3.72;2.08;;;15.60;99.90;;;;;;5063951;28;20067;-79
2022/06/29 01:21:48;;;;;;;4.72;3.05;;;15.50;99.90;;;;;;5064633;28;20080;-79
2022/06/29 01:24:14;;;;;;;4.78;3.30;;;15.50;99.90;;;;;;5063404;28;20036;-78
2022/06/29 01:26:39;;;;;;;3.90;2.67;;;15.50;99.90;;;;;;5044384;28;20052;-78
2022/06/29 01:29:05;;;;;;;3.17;2.60;;;15.50;99.90;;;;;;5015421;28;20086;-77
2022/06/29 01:31:31;;;;;;;8.98;3.13;;;15.50;99.90;;;;;;5066439;28;20047;-79
2022/06/29 01:34:00;;;;;;;6.30;2.33;;;15.50;99.90;;;;;;5062876;28;20397;-78
2022/06/29 01:36:25;;;;;;;4.60;2.55;;;15.50;99.90;;;;;;5062907;28;20044;-77
2022/06/29 01:38:51;;;;;;;5.20;2.92;;;15.60;99.90;;;;;;5030556;28;20491;-77
2022/06/29 01:41:16;;;;;;;6.55;2.45;;;15.60;99.90;;;;;;5063299;28;20037;-77
2022/06/29 01:43:42;;;;;;;5.80;3.40;;;15.60;99.90;;;;;;5066048;28;20044;-78
2022/06/29 01:46:08;;;;;;;3.10;2.80;;;15.60;99.90;;;;;;5058680;28;20274;-79
2022/06/29 01:48:33;;;;;;;5.80;3.03;;;15.60;99.90;;;;;;5065466;28;20044;-78
2022/06/29 01:50:59;;;;;;;5.18;3.45;;;15.70;99.90;;;;;;5063188;28;20052;-79
2022/06/29 01:53:25;;;;;;;4.35;2.33;;;15.70;99.90;;;;;;5060038;28;20101;-79
2022/06/29 01:55:51;;;;;;;6.07;2.40;;;15.70;99.90;;;;;;5053863;28;20430;-78
2022/06/29 01:58:17;;;;;;;4.80;3.10;;;15.60;99.90;;;;;;5054329;28;20094;-78
2022/06/29 02:00:44;;;;;;;6.22;3.55;;;15.70;99.90;;;;;;5059907;28;20036;-78
2022/06/29 02:03:10;;;;;;;8.13;3.95;;;15.60;99.90;;;;;;5062962;28;20570;-77
2022/06/29 02:05:37;;;;;;;7.75;3.13;;;15.70;99.90;;;;;;5063900;28;20417;-78
2022/06/29 02:08:03;;;;;;;13.10;3.35;;;15.70;99.90;;;;;;5062641;28;20040;-78
2022/06/29 02:10:29;;;;;;;12.50;3.15;;;15.70;99.90;;;;;;5063283;28;20035;-79
2022/06/29 02:12:54;;;;;;;6.03;2.72;;;15.70;99.90;;;;;;5062812;28;20036;-78
2022/06/29 02:15:21;;;;;;;5.85;2.63;;;15.70;99.90;;;;;;5063175;28;20127;-78
2022/06/29 02:17:46;;;;;;;11.57;4.18;;;15.70;99.90;;;;;;5058504;28;20086;-79
2022/06/29 02:20:12;;;;;;;4.30;3.40;;;15.70;99.90;;;;;;5028305;28;20275;-78
2022/06/29 02:22:39;;;;;;;5.57;2.75;;;15.60;99.90;;;;;;5064412;28;20255;-78
2022/06/29 02:25:05;;;;;;;6.60;3.00;;;15.60;99.90;;;;;;5060578;28;20565;-78
2022/06/29 02:27:30;;;;;;;8.23;4.00;;;15.60;99.90;;;;;;5064471;28;20225;-78
2022/06/29 02:29:56;;;;;;;5.90;3.45;;;15.60;99.90;;;;;;5064704;28;20036;-77
2022/06/29 02:35:06;;;;;;;4.40;2.90;;;15.50;99.90;;;;;;5062185;28;20059;-77
2022/06/29 02:37:32;;;;;;;3.38;2.97;;;15.50;99.90;;;;;;5047888;28;20044;-78
2022/06/29 02:39:57;;;;;;;4.57;3.50;;;15.70;99.90;;;;;;5063152;28;20115;-77
2022/06/29 02:42:23;;;;;;;6.47;3.63;;;15.60;99.90;;;;;;5062313;28;20048;-77
2022/06/29 02:44:49;;;;;;;8.77;3.97;;;15.50;99.90;;;;;;5057883;28;20040;-77
2022/06/29 02:47:16;;;;;;;3.17;2.75;;;15.60;99.90;;;;;;5055538;28;20508;-78
2022/06/29 02:49:42;;;;;;;3.88;3.15;;;15.60;99.90;;;;;;5065098;28;20048;-78
2022/06/29 02:52:08;;;;;;;6.18;3.13;;;15.60;99.90;;;;;;5061979;28;20052;-78
2022/06/29 02:54:34;;;;;;;5.72;3.83;;;15.60;99.90;;;;;;5059151;28;20047;-77
2022/06/29 02:56:59;;;;;;;4.82;3.47;;;15.60;99.90;;;;;;5061976;28;20044;-77
2022/06/29 02:59:25;;;;;;;5.13;3.00;;;15.60;99.90;;;;;;5064862;28;20406;-77
2022/06/29 03:01:51;;;;;;;9.93;3.65;;;15.60;99.90;;;;;;5061178;28;20495;-79
2022/06/29 03:04:17;;;;;;;6.22;3.83;;;15.60;99.90;;;;;;5047282;28;20043;-78
2022/06/29 03:06:42;;;;;;;7.05;3.50;;;15.60;99.90;;;;;;5063433;28;20514;-78
2022/06/29 03:09:08;;;;;;;7.32;3.65;;;15.60;99.90;;;;;;5062527;28;20335;-79
2022/06/29 03:11:34;;;;;;;5.72;4.05;;;15.60;99.90;;;;;;5062285;28;20089;-78
2022/06/29 03:14:01;;;;;;;13.60;4.07;;;15.50;99.90;;;;;;5048430;28;21632;-78
2022/06/29 03:16:26;;;;;;;7.75;4.50;;;15.40;99.90;;;;;;5063794;28;20127;-79
2022/06/29 03:18:52;;;;;;;5.75;3.42;;;15.50;99.90;;;;;;5063635;28;20456;-79
2022/06/29 03:21:18;;;;;;;4.97;2.75;;;15.40;99.90;;;;;;5058600;28;20835;-78
2022/06/29 03:23:44;;;;;;;9.15;3.85;;;15.40;99.90;;;;;;5062618;28;20056;-78
2022/06/29 03:26:13;;;;;;;6.18;3.30;;;15.40;99.90;;;;;;5045162;28;20029;-78
2022/06/29 03:28:39;;;;;;;4.82;3.33;;;15.40;99.90;;;;;;5058845;28;20329;-78
2022/06/29 03:31:05;;;;;;;4.35;3.25;;;15.40;99.90;;;;;;5056349;28;20052;-78
2022/06/29 03:33:31;;;;;;;4.63;3.33;;;15.30;99.90;;;;;;5062313;28;20041;-79
2022/06/29 03:35:57;;;;;;;4.65;3.40;;;15.30;99.90;;;;;;5048075;28;20495;-79
2022/06/29 03:38:23;;;;;;;7.15;2.95;;;15.30;99.90;;;;;;5067802;28;20128;-78
2022/06/29 03:40:48;;;;;;;4.18;3.78;;;15.30;99.90;;;;;;5064241;28;20135;-77
2022/06/29 03:43:14;;;;;;;6.07;3.13;;;15.30;99.90;;;;;;5067515;28;20044;-78
2022/06/29 03:45:40;;;;;;;7.13;4.03;;;15.30;99.90;;;;;;5057314;28;20571;-78
2022/06/29 03:48:06;;;;;;;6.38;3.47;;;15.30;99.90;;;;;;5067713;28;20075;-79
2022/06/29 03:50:32;;;;;;;9.52;4.97;;;15.40;99.90;;;;;;5065829;28;20038;-78
2022/06/29 03:52:58;;;;;;;6.03;3.28;;;15.40;99.90;;;;;;5050819;28;20143;-78
2022/06/29 03:55:24;;;;;;;4.85;3.22;;;15.40;99.90;;;;;;5065745;28;20522;-79
2022/06/29 03:57:49;;;;;;;10.48;4.35;;;15.40;99.90;;;;;;5067334;28;20363;-77
2022/06/29 04:00:17;;;;;;;5.65;3.42;;;15.40;99.90;;;;;;5065842;28;20117;-78
2022/06/29 04:02:42;;;;;;;5.55;3.35;;;15.30;99.90;;;;;;5047303;28;20048;-79
2022/06/29 04:05:09;;;;;;;5.82;4.10;;;15.30;99.90;;;;;;5065593;28;20737;-78
2022/06/29 04:07:35;;;;;;;6.82;4.07;;;15.20;99.90;;;;;;5063669;28;20041;-78
2022/06/29 04:10:01;;;;;;;6.40;3.92;;;15.30;99.90;;;;;;5064623;28;20498;-79
2022/06/29 04:12:30;;;;;;;5.38;3.90;;;15.30;99.90;;;;;;5065493;28;20037;-79
2022/06/29 04:14:56;;;;;;;6.03;4.32;;;15.30;99.90;;;;;;5064455;28;20044;-78
2022/06/29 04:17:22;;;;;;;9.25;5.35;;;15.60;99.90;;;;;;5066373;28;20389;-78
2022/06/29 04:19:48;;;;;;;4.93;4.05;;;15.70;99.90;;;;;;5064900;28;20032;-78
2022/06/29 04:22:14;;;;;;;8.90;3.97;;;15.60;99.90;;;;;;5064847;28;20080;-77
2022/06/29 04:24:40;;;;;;;6.47;3.53;;;15.50;99.90;;;;;;5064045;28;20075;-78
2022/06/29 04:27:05;;;;;;;10.52;5.03;;;15.40;99.90;;;;;;5048778;28;20807;-79
2022/06/29 04:29:31;;;;;;;5.63;3.78;;;15.40;99.90;;;;;;5066353;28;20043;-79
2022/06/29 04:31:56;;;;;;;5.25;3.65;;;15.40;99.90;;;;;;5057090;28;20039;-78
2022/06/29 04:34:22;;;;;;;5.65;4.07;;;15.50;99.90;;;;;;5064849;28;20392;-79
2022/06/29 04:36:48;;;;;;;15.63;5.25;;;15.40;99.90;;;;;;5066232;28;20475;-79
2022/06/29 04:39:13;;;;;;;8.02;3.72;;;15.40;99.90;;;;;;5065559;28;20391;-78
2022/06/29 04:41:39;;;;;;;10.25;4.57;;;15.50;99.90;;;;;;5064981;28;20098;-78
2022/06/29 04:44:05;;;;;;;5.43;4.15;;;15.40;99.90;;;;;;5065817;28;20471;-79
2022/06/29 04:46:31;;;;;;;5.18;4.15;;;15.40;99.90;;;;;;5064468;28;20047;-77
2022/06/29 04:48:59;;;;;;;4.75;4.10;;;15.40;99.90;;;;;;5064567;28;20090;-80
2022/06/29 04:51:26;;;;;;;6.60;4.68;;;15.50;99.90;;;;;;5055099;28;20041;-78
2022/06/29 04:53:56;;;;;;;5.22;4.18;;;15.50;99.90;;;;;;5064334;28;20083;-78
2022/06/29 04:56:27;;;;;;;9.18;4.65;;;15.70;99.90;;;;;;5067254;28;20505;-78
2022/06/29 04:58:54;;;;;;;8.05;3.95;;;15.70;99.90;;;;;;5063978;28;20044;-78
2022/06/29 05:01:23;;;;;;;6.28;3.97;;;15.70;99.90;;;;;;5064074;28;20043;-78
2022/06/29 05:03:50;;;;;;;4.93;3.83;;;15.80;99.90;;;;;;5065372;28;20075;-78
2022/06/29 05:06:16;;;;;;;5.15;3.88;;;15.90;99.90;;;;;;5067218;28;20098;-79
2022/06/29 05:08:42;;;;;;;5.28;4.32;;;15.90;99.90;;;;;;5045937;28;20048;-78
2022/06/29 05:11:07;;;;;;;5.57;3.65;;;16.00;99.90;;;;;;5045626;28;20072;-78
2022/06/29 05:13:33;;;;;;;5.40;4.45;;;16.00;99.90;;;;;;5064141;28;20515;-78
2022/06/29 05:15:59;;;;;;;7.22;4.63;;;16.00;99.90;;;;;;5065584;28;20041;-78
2022/06/29 05:18:26;;;;;;;4.30;3.90;;;16.10;99.90;;;;;;5065810;28;20045;-79
2022/06/29 05:20:52;;;;;;;6.90;4.00;;;16.20;99.90;;;;;;5062547;28;20098;-78
2022/06/29 05:23:18;;;;;;;4.75;3.53;;;16.30;99.90;;;;;;5030272;28;20079;-79
2022/06/29 05:25:44;;;;;;;4.00;3.60;;;16.40;99.90;;;;;;5054068;28;20115;-79
2022/06/29 05:28:11;;;;;;;6.82;3.60;;;16.50;99.90;;;;;;5064912;28;20124;-79
2022/06/29 05:30:37;;;;;;;5.30;4.80;;;16.50;99.90;;;;;;5063152;28;20076;-79
2022/06/29 05:33:04;;;;;;;6.63;4.90;;;16.70;99.90;;;;;;5061272;28;20313;-79
2022/06/29 05:35:33;;;;;;;9.35;4.40;;;16.60;99.90;;;;;;5048070;28;20080;-78
2022/06/29 05:38:02;;;;;;;9.18;4.20;;;16.70;99.90;;;;;;5065752;28;20549;-82
2022/06/29 05:40:29;;;;;;;10.93;4.30;;;16.80;99.90;;;;;;5064358;28;20080;-79
2022/06/29 05:42:57;;;;;;;5.88;3.47;;;16.90;99.90;;;;;;5063425;28;20048;-78
2022/06/29 05:45:24;;;;;;;5.57;2.97;;;17.10;99.90;;;;;;5029242;28;20056;-78
2022/06/29 05:47:50;;;;;;;7.47;3.60;;;17.30;99.90;;;;;;5064331;28;20044;-80
2022/06/29 05:50:16;;;;;;;7.35;3.17;;;17.40;99.90;;;;;;5064824;28;20466;-78
2022/06/29 05:52:41;;;;;;;5.05;3.08;;;17.40;99.90;;;;;;5051216;28;20075;-79
2022/06/29 05:55:08;;;;;;;4.63;3.75;;;17.30;99.90;;;;;;5062972;28;20123;-78
2022/06/29 05:57:34;;;;;;;4.30;3.35;;;17.40;99.90;;;;;;5061071;28;20111;-77
2022/06/29 06:00:01;;;;;;;3.17;2.88;;;17.40;99.90;;;;;;5059320;28;20123;-77
2022/06/29 06:02:27;;;;;;;3.55;3.17;;;17.50;99.90;;;;;;5052658;28;20047;-77
2022/06/29 06:04:53;;;;;;;7.40;4.32;;;17.50;99.90;;;;;;5054478;28;20049;-78
2022/06/29 06:07:18;;;;;;;6.82;3.33;;;17.50;99.90;;;;;;5063976;28;20040;-76
2022/06/29 06:09:44;;;;;;;7.55;4.63;;;17.70;99.90;;;;;;5056986;28;20064;-78
2022/06/29 06:12:11;;;;;;;4.15;3.00;;;17.70;99.90;;;;;;5044787;28;20032;-77
2022/06/29 06:14:37;;;;;;;7.80;4.03;;;17.70;99.90;;;;;;5048668;28;20037;-77
2022/06/29 06:17:03;;;;;;;3.75;3.00;;;17.90;99.90;;;;;;5064226;28;20082;-77
2022/06/29 06:19:29;;;;;;;7.90;3.20;;;17.90;99.90;;;;;;5054209;28;20487;-78
2022/06/29 06:21:54;;;;;;;7.05;2.95;;;18.00;99.90;;;;;;5063627;28;20043;-78
2022/06/29 06:24:20;;;;;;;3.83;2.85;;;18.10;99.90;;;;;;5064181;28;20033;-78
2022/06/29 06:26:46;;;;;;;7.55;3.08;;;18.20;99.90;;;;;;5063585;28;20190;-78
2022/06/29 06:29:12;;;;;;;6.05;3.00;;;18.20;99.90;;;;;;5065101;28;20554;-77
2022/06/29 06:31:38;;;;;;;7.57;2.92;;;18.30;99.90;;;;;;5062143;28;20041;-76
2022/06/29 06:34:03;;;;;;;5.93;2.80;;;18.30;99.90;;;;;;5046274;28;20041;-77
2022/06/29 06:36:29;;;;;;;3.33;2.70;;;18.40;99.90;;;;;;5028908;28;20051;-77
2022/06/29 06:38:55;;;;;;;3.65;2.78;;;18.50;99.90;;;;;;5044921;28;20151;-76
2022/06/29 06:41:25;;;;;;;3.70;1.83;;;18.70;99.90;;;;;;5043586;28;20044;-75
2022/06/29 06:43:55;;;;;;;;;;;18.80;99.90;;;;;;5063524;28;20044;-76
2022/06/29 06:46:21;;;;;;;3.47;1.80;;;18.80;99.90;;;;;;5057504;28;20282;-76
2022/06/29 06:48:49;;;;;;;4.82;1.80;;;19.10;99.90;;;;;;5062977;28;20303;-76
2022/06/29 06:51:15;;;;;;;4.10;1.60;;;19.20;99.90;;;;;;5064386;28;20123;-76
2022/06/29 06:53:41;;;;;;;2.17;1.70;;;19.40;99.90;;;;;;5063192;28;20516;-76
2022/06/29 06:56:06;;;;;;;7.45;1.65;;;19.50;99.90;;;;;;5044530;28;20047;-76
2022/06/29 06:58:35;;;;;;;3.30;2.00;;;20.00;99.90;;;;;;5061465;28;20052;-76
2022/06/29 07:01:03;;;;;;;2.25;1.20;;;20.80;99.90;;;;;;5048842;28;20049;-81
2022/06/29 07:03:31;;;;;;;3.58;1.35;;;20.90;99.90;;;;;;5056022;28;20047;-77
2022/06/29 07:06:00;;;;;;;2.63;1.27;;;21.90;99.90;;;;;;5063100;28;20478;-78
2022/06/29 07:08:27;;;;;;;3.80;1.20;;;22.70;99.90;;;;;;5048880;28;20049;-75
2022/06/29 07:10:53;;;;;;;2.25;1.30;;;22.90;99.90;;;;;;5047784;28;20059;-77
2022/06/29 07:13:19;;;;;;;1.30;1.17;;;23.90;99.90;;;;;;5065814;28;20066;-80
2022/06/29 07:15:44;;;;;;;2.13;1.02;;;24.20;99.90;;;;;;5065647;28;20047;-78
2022/06/29 07:18:10;;;;;;;2.03;1.48;;;24.90;99.90;;;;;;5065924;28;20044;-77
2022/06/29 07:20:36;;;;;;;3.90;1.42;;;25.40;99.90;;;;;;5045727;28;20462;-77
2022/06/29 07:23:01;;;;;;;4.03;1.40;;;24.70;99.90;;;;;;5064957;28;20123;-76
2022/06/29 07:25:27;;;;;;;5.05;1.67;;;24.80;99.90;;;;;;5066634;28;20123;-76
2022/06/29 07:27:53;;;;;;;8.02;1.27;;;25.00;99.90;;;;;;5066586;28;20101;-77
2022/06/29 07:30:18;;;;;;;5.75;1.50;;;25.20;99.90;;;;;;5066932;28;20131;-76
2022/06/29 07:32:44;;;;;;;3.92;1.48;;;25.60;99.90;;;;;;5067999;28;20052;-76
2022/06/29 07:35:10;;;;;;;2.15;1.13;;;25.60;99.90;;;;;;5067379;28;20041;-77
2022/06/29 07:37:35;;;;;;;3.80;1.48;;;24.80;99.90;;;;;;5032811;28;20071;-76
2022/06/29 07:40:01;;;;;;;2.35;1.08;;;25.40;99.90;;;;;;5064392;28;20076;-77
2022/06/29 07:42:27;;;;;;;5.05;1.48;;;26.10;99.90;;;;;;5067141;28;20394;-76
2022/06/29 07:44:53;;;;;;;4.80;0.93;;;26.40;99.90;;;;;;5066367;28;20060;-76
2022/06/29 07:47:18;;;;;;;3.03;1.20;;;26.40;99.90;;;;;;5065849;28;20033;-75
2022/06/29 07:49:44;;;;;;;3.00;1.63;;;26.10;99.90;;;;;;5039794;28;20458;-75
2022/06/29 07:52:09;;;;;;;5.40;1.92;;;25.70;99.90;;;;;;5056584;28;20049;-77
2022/06/29 07:54:35;;;;;;;5.57;1.20;;;24.50;99.90;;;;;;5048105;28;20082;-78
2022/06/29 07:57:01;;;;;;;2.35;1.00;;;24.30;99.90;;;;;;5047665;28;20399;-76
2022/06/29 07:59:26;;;;;;;4.55;1.02;;;23.60;99.90;;;;;;5066660;28;20041;-76
2022/06/29 08:01:52;;;;;;;0.95;0.68;;;23.70;99.90;;;;;;5049848;28;20040;-76
2022/06/29 08:04:18;;;;;;;2.38;1.02;;;23.80;99.90;;;;;;5062743;28;20407;-77
2022/06/29 08:06:43;;;;;;;3.17;1.10;;;23.60;99.90;;;;;;5047875;28;20080;-77
2022/06/29 08:09:09;;;;;;;2.83;1.23;;;23.50;99.90;;;;;;5048379;28;20067;-77
2022/06/29 08:11:35;;;;;;;2.83;0.80;;;23.50;99.90;;;;;;5066384;28;20098;-77
2022/06/29 08:14:01;;;;;;;2.75;0.90;;;23.80;99.90;;;;;;5065585;28;20084;-78
2022/06/29 08:16:26;;;;;;;1.48;1.10;;;23.90;99.90;;;;;;5048738;28;20040;-76
2022/06/29 08:18:52;;;;;;;3.35;1.63;;;23.90;99.90;;;;;;5048776;28;20097;-77
2022/06/29 08:21:18;;;;;;;4.47;1.10;;;24.20;99.90;;;;;;5066360;28;20131;-81
2022/06/29 08:23:43;;;;;;;1.70;0.90;;;24.20;99.90;;;;;;5031664;28;20685;-80
2022/06/29 08:26:09;;;;;;;3.38;1.33;;;24.40;99.90;;;;;;5065816;28;20066;-81
2022/06/29 08:28:35;;;;;;;2.88;1.20;;;24.40;99.90;;;;;;5049368;28;20036;-81
2022/06/29 08:31:00;;;;;;;2.45;1.10;;;24.40;99.90;;;;;;5034129;28;20041;-81
2022/06/29 08:33:26;;;;;;;2.33;1.00;;;24.60;99.90;;;;;;5067154;28;20092;-81
2022/06/29 08:35:52;;;;;;;2.65;1.08;;;24.40;99.90;;;;;;5068057;28;20403;-83
2022/06/29 08:38:17;;;;;;;2.83;1.00;;;24.20;99.90;;;;;;5065590;28;20448;-84
2022/06/29 08:40:48;;;;;;;2.10;1.60;;;24.50;99.90;;;;;;5064555;28;20438;-86
2022/06/29 08:43:15;;;;;;;1.65;0.88;;;24.50;99.90;;;;;;5070787;28;20048;-83
2022/06/29 08:45:43;;;;;;;1.80;0.85;;;24.70;99.90;;;;;;5086881;28;20041;-84
2022/06/29 08:48:10;;;;;;;1.65;1.10;;;24.70;99.90;;;;;;5084549;28;20046;-83
2022/06/29 08:50:41;;;;;;;1.35;0.98;;;24.90;99.90;;;;;;5078598;28;20073;-81
2022/06/29 08:53:08;;;;;;;3.58;1.88;;;24.90;99.90;;;;;;5060707;28;20056;-80
2022/06/29 08:55:41;;;;;;;5.93;1.10;;;24.80;99.90;;;;;;5066848;28;20052;-82
2022/06/29 08:58:07;;;;;;;2.55;0.82;;;24.90;99.90;;;;;;5067921;28;20076;-78
2022/06/29 09:00:36;;;;;;;2.22;0.85;;;25.20;99.90;;;;;;5053810;28;20119;-79
2022/06/29 09:03:04;;;;;;;2.80;1.10;;;25.00;99.90;;;;;;5074453;28;20455;-79
2022/06/29 09:05:31;;;;;;;3.25;1.40;;;24.90;99.90;;;;;;5053058;28;20506;-79
2022/06/29 09:07:56;;;;;;;1.27;0.95;;;25.10;99.90;;;;;;5041598;28;20076;-80
2022/06/29 09:10:23;;;;;;;1.15;0.90;;;25.00;99.90;;;;;;5058399;28;20061;-81
2022/06/29 09:12:52;;;;;;;4.70;1.27;;;24.60;99.90;;;;;;5072793;28;20040;-81
2022/06/29 09:15:30;;;;;;;2.42;1.83;;;24.50;99.90;;;;;;5055136;28;20044;-79
2022/06/29 09:17:56;;;;;;;4.50;1.40;;;24.50;99.90;;;;;;5064521;28;20049;-79
2022/06/29 09:20:22;;;;;;;3.20;2.05;;;25.00;99.90;;;;;;5070801;28;20046;-79
2022/06/29 09:22:52;;;;;;;4.68;1.40;;;25.40;99.90;;;;;;5050429;28;20605;-81
2022/06/29 09:25:27;;;;;;;3.13;1.52;;;25.50;99.90;;;;;;5067845;28;20337;-79
2022/06/29 09:27:56;;;;;;;3.60;1.10;;;25.10;99.90;;;;;;5052836;28;20049;-80
2022/06/29 09:30:30;;;;;;;4.40;0.88;;;24.80;99.90;;;;;;5051819;28;20043;-78
2022/06/29 09:33:02;;;;;;;7.28;2.25;;;24.80;99.90;;;;;;5050081;28;20036;-78
2022/06/29 09:35:28;;;;;;;2.20;1.00;;;25.00;99.90;;;;;;5069363;28;20070;-79
2022/06/29 09:38:24;;;;;;;2.67;1.23;;;25.10;99.90;;;;;;5067560;28;20317;-79
2022/06/29 09:41:07;;;;;;;3.60;1.50;;;25.20;99.90;;;;;;5037569;28;20051;-78
2022/06/29 09:43:50;;;;;;;3.10;1.85;;;25.20;99.90;;;;;;5069201;28;20548;-80
2022/06/29 09:46:17;;;;;;;5.32;1.20;;;25.40;99.90;;;;;;5073651;28;20040;-80
2022/06/29 09:48:43;;;;;;;1.73;1.20;;;25.40;99.90;;;;;;5070740;28;20098;-79
2022/06/29 09:54:07;;;;;;;5.70;1.48;;;25.70;99.90;;;;;;5051889;28;20122;-79
2022/06/29 09:56:34;;;;;;;3.35;1.90;;;25.30;99.90;;;;;;5071138;28;20049;-78
2022/06/29 09:59:01;;;;;;;2.05;1.33;;;25.10;99.90;;;;;;5052399;28;20053;-80
2022/06/29 10:04:13;;;;;;;2.22;1.80;;;26.00;99.90;;;;;;5072396;28;20119;-79
2022/06/29 10:06:39;;;;;;;3.97;1.27;;;25.90;99.90;;;;;;5037513;28;20040;-80
2022/06/29 10:09:05;;;;;;;1.50;1.35;;;26.30;99.90;;;;;;5069615;28;20051;-80
2022/06/29 10:14:36;;;;;;;5.80;2.35;;;26.00;99.90;;;;;;5065463;28;20131;-79
2022/06/29 10:17:33;;;;;;;1.80;1.70;;;26.20;99.90;;;;;;5044939;28;20041;-79
2022/06/29 10:20:37;;;;;;;4.63;1.30;;;26.10;99.90;;;;;;5045809;28;20036;-81
2022/06/29 10:23:03;;;;;;;4.25;1.52;;;26.30;99.90;;;;;;5044141;28;20044;-80
2022/06/29 10:25:28;;;;;;;2.58;1.58;;;26.10;99.90;;;;;;5049508;28;20449;-79
2022/06/29 10:28:20;;;;;;;1.73;1.17;;;25.90;99.90;;;;;;5063438;28;20024;-80
2022/06/29 10:30:47;;;;;;;3.03;1.30;;;25.90;99.90;;;;;;5047264;28;20306;-79
2022/06/29 10:33:37;;;;;;;2.33;1.25;;;26.20;99.90;;;;;;5031158;28;20029;-80
2022/06/29 10:36:06;;;;;;;2.95;1.67;;;25.80;99.90;;;;;;5030360;28;20055;-80
2022/06/29 10:38:55;;;;;;;2.17;1.27;;;26.00;99.90;;;;;;5063460;28;20044;-79
2022/06/29 10:44:06;;;;;;;3.92;1.15;;;26.50;99.90;;;;;;5065146;28;20127;-79
2022/06/29 10:46:57;;;;;;;3.22;1.50;;;26.60;99.90;;;;;;5047497;28;20040;-80
2022/06/29 10:49:24;;;;;;;2.67;1.23;;;26.60;99.90;;;;;;5046549;28;20049;-79
2022/06/29 10:51:49;;;;;;;5.50;1.20;;;26.60;99.90;;;;;;5064264;28;20400;-82
2022/06/29 10:54:27;;;;;;;3.33;1.42;;;27.10;99.90;;;;;;5064721;28;20049;-80
2022/06/29 10:56:53;;;;;;;3.88;1.23;;;27.00;99.90;;;;;;5063378;28;20047;-81
2022/06/29 10:59:36;;;;;;;2.42;1.23;;;26.80;99.90;;;;;;5063646;28;20376;-79
2022/06/29 11:02:11;;;;;;;2.22;1.27;;;27.10;99.90;;;;;;5065391;28;20127;-80
2022/06/29 11:04:37;;;;;;;7.82;1.25;;;27.10;99.90;;;;;;5047594;28;20566;-80
2022/06/29 11:12:53;;;;;;;3.50;1.10;;;27.10;99.90;;;;;;5065499;28;20664;-81
2022/06/29 11:15:49;;;;;;;7.22;1.42;;;27.10;99.90;;;;;;5065503;28;20123;-76
2022/06/29 11:18:18;;;;;;;2.35;1.50;;;27.30;99.90;;;;;;5062519;28;20407;-81
2022/06/29 11:20:46;;;;;;;2.17;1.38;;;26.80;99.90;;;;;;5050756;28;20083;-80
2022/06/29 11:23:13;;;;;;;2.95;1.00;;;27.20;99.90;;;;;;5064341;28;20040;-81
2022/06/29 11:25:49;;;;;;;1.23;0.95;;;27.40;99.90;;;;;;5065070;28;20416;-82
2022/06/29 11:28:19;;;;;;;2.30;0.98;;;27.30;99.90;;;;;;5063645;28;20391;-81
2022/06/29 11:31:03;;;;;;;2.42;1.20;;;27.40;99.90;;;;;;5064235;28;20101;-81
2022/06/29 11:33:31;;;;;;;2.92;1.70;;;27.60;99.90;;;;;;5065423;28;20116;-82
2022/06/29 11:36:06;;;;;;;2.08;1.17;;;27.50;99.90;;;;;;5064588;28;20055;-81
2022/06/29 11:38:36;;;;;;;2.38;1.70;;;27.20;99.90;;;;;;5063956;28;20036;-80
2022/06/29 11:41:13;;;;;;;5.38;1.10;;;27.40;99.90;;;;;;5065612;28;20059;-82
2022/06/29 11:43:40;;;;;;;2.53;0.88;;;27.10;99.90;;;;;;5065195;28;20083;-82
2022/06/29 11:46:05;;;;;;;1.23;0.93;;;27.50;99.90;;;;;;5065025;28;20380;-81
2022/06/29 11:49:33;;;;;;;2.45;0.73;;;27.60;99.60;;;;;;5063025;28;20086;-81
2022/06/29 11:51:19;;;;;;;8.88;1.65;;;27.10;99.90;;;;;;5063547;28;20060;-81
2022/06/29 11:53:52;;;;;;;1.98;1.65;;;27.00;99.90;;;;;;5045608;28;20044;-79
2022/06/29 11:56:25;;;;;;;2.38;0.73;;;27.10;99.90;;;;;;5048294;28;20056;-81
2022/06/29 11:58:52;;;;;;;4.70;1.55;;;27.50;99.50;;;;;;5065998;28;20182;-80
2022/06/29 12:01:22;;;;;;;2.20;0.80;;;27.60;99.90;;;;;;5032999;28;20185;-80
2022/06/29 12:03:52;;;;;;;1.83;1.40;;;27.80;99.90;;;;;;5068220;28;20048;-79
2022/06/29 12:06:18;;;;;;;;;;;27.80;99.30;;;;;;5069074;28;20105;-81
2022/06/29 12:08:45;;;;;;;2.00;0.80;;;27.60;99.10;;;;;;5066547;28;19924;-81
2022/06/29 12:11:12;;;;;;;1.17;0.75;;;27.90;99.60;;;;;;5069066;28;20135;-80
2022/06/29 12:13:37;;;;;;;1.30;0.85;;;27.80;99.50;;;;;;5068708;28;20193;-80
2022/06/29 12:16:03;;;;;;;2.17;0.70;;;27.40;98.20;;;;;;5068763;28;20044;-81
2022/06/29 12:18:30;;;;;;;3.67;1.00;;;27.40;98.50;;;;;;5035159;28;20090;-80
2022/06/29 12:20:55;;;;;;;9.07;1.33;;;27.80;98.90;;;;;;5065935;28;20131;-79
2022/06/29 12:23:21;;;;;;;4.82;1.10;;;27.80;99.20;;;;;;5049442;28;20515;-81
2022/06/29 12:25:47;;;;;;;4.13;1.13;;;27.80;99.10;;;;;;5068317;28;20398;-80
2022/06/29 12:28:12;;;;;;;2.92;1.15;;;27.70;99.90;;;;;;5067366;28;20043;-81
2022/06/29 12:30:38;;;;;;;4.38;1.20;;;28.00;99.90;;;;;;5068240;28;20074;-80
2022/06/29 12:33:09;;;;;;;1.52;1.27;;;27.70;99.90;;;;;;5068720;28;20039;-81
2022/06/29 12:35:36;;;;;;;3.67;1.70;;;27.50;99.90;;;;;;5069161;28;20044;-80
2022/06/29 12:38:02;;;;;;;4.22;1.80;;;27.90;99.90;;;;;;5049281;28;20322;-82
2022/06/29 12:40:32;;;;;;;2.20;1.30;;;27.80;99.90;;;;;;5068965;28;20569;-81
2022/06/29 12:42:58;;;;;;;2.08;1.13;;;27.90;99.60;;;;;;5049587;28;20036;-80
2022/06/29 12:45:24;;;;;;;2.00;1.48;;;28.00;99.70;;;;;;5067104;28;20040;-80
2022/06/29 12:47:50;;;;;;;1.38;1.20;;;28.10;99.90;;;;;;5066963;28;20394;-82
2022/06/29 12:50:16;;;;;;;6.38;1.55;;;28.10;99.10;;;;;;5028294;28;20521;-81
2022/06/29 12:52:46;;;;;;;2.88;1.10;;;28.10;99.30;;;;;;5065140;28;20048;-81
2022/06/29 12:55:13;;;;;;;3.88;1.35;;;28.20;99.70;;;;;;5066958;28;20053;-80
2022/06/29 12:57:40;;;;;;;1.52;1.42;;;28.00;99.60;;;;;;5048306;28;20099;-81
2022/06/29 13:00:06;;;;;;;1.83;1.30;;;28.20;99.70;;;;;;5065009;28;20055;-80
2022/06/29 13:02:32;;;;;;;1.23;1.10;;;28.40;99.80;;;;;;5066065;28;20043;-80
2022/06/29 13:04:58;;;;;;;1.10;1.00;;;28.50;99.30;;;;;;5048952;28;20040;-81
2022/06/29 13:07:26;;;;;;;1.42;1.25;;;28.50;98.80;;;;;;5066140;28;20048;-80
2022/06/29 13:09:58;;;;;;;1.10;1.00;;;28.30;98.60;;;;;;5047822;28;20538;-81